sensor_id;sensor_type;location;lat;lon;timestamp;temperature;humidity
25973;DHT22;13765;51.166;4.466;2023-05-07T00:00:34;16.10;99.90
25973;DHT22;13765;51.166;4.466;2023-05-07T00:03:00;16.10;99.90
25973;DHT22;13765;51.166;4.466;2023-05-07T00:05:26;16.10;99.90
25973;DHT22;13765;51.166;4.466;2023-05-07T00:07:54;16.10;99.90
25973;DHT22;13765;51.166;4.466;2023-05-07T00:10:20;16.10;99.90
25973;DHT22;13765;51.166;4.466;2023-05-07T00:12:46;16.10;99.90
25973;DHT22;13765;51.166;4.466;2023-05-07T00:15:13;16.10;99.90
25973;DHT22;13765;51.166;4.466;2023-05-07T00:17:39;16.20;99.90
25973;DHT22;13765;51.166;4.466;2023-05-07T00:20:08;16.20;99.90
25973;DHT22;13765;51.166;4.466;2023-05-07T00:22:33;16.20;99.90
25973;DHT22;13765;51.166;4.466;2023-05-07T00:24:59;16.10;99.90
25973;DHT22;13765;51.166;4.466;2023-05-07T00:27:25;16.10;99.90
25973;DHT22;13765;51.166;4.466;2023-05-07T00:29:51;16.00;99.90
25973;DHT22;13765;51.166;4.466;2023-05-07T00:32:17;16.10;99.90
25973;DHT22;13765;51.166;4.466;2023-05-07T00:34:43;16.00;99.90
25973;DHT22;13765;51.166;4.466;2023-05-07T00:37:09;16.10;99.90
25973;DHT22;13765;51.166;4.466;2023-05-07T00:39:37;16.00;99.90
25973;DHT22;13765;51.166;4.466;2023-05-07T00:42:02;15.90;99.90
25973;DHT22;13765;51.166;4.466;2023-05-07T00:44:29;16.00;99.90
25973;DHT22;13765;51.166;4.466;2023-05-07T00:46:58;16.00;99.90
25973;DHT22;13765;51.166;4.466;2023-05-07T00:49:35;16.00;99.90
25973;DHT22;13765;51.166;4.466;2023-05-07T00:52:05;16.00;99.90
25973;DHT22;13765;51.166;4.466;2023-05-07T00:54:31;16.00;99.90
25973;DHT22;13765;51.166;4.466;2023-05-07T00:56:56;16.00;99.90
25973;DHT22;13765;51.166;4.466;2023-05-07T00:59:22;16.00;99.90
25973;DHT22;13765;51.166;4.466;2023-05-07T01:01:48;16.00;99.90
25973;DHT22;13765;51.166;4.466;2023-05-07T01:04:17;15.90;99.90
25973;DHT22;13765;51.166;4.466;2023-05-07T01:06:44;15.90;99.90
25973;DHT22;13765;51.166;4.466;2023-05-07T01:09:13;15.90;99.90
25973;DHT22;13765;51.166;4.466;2023-05-07T01:11:39;15.90;99.90
25973;DHT22;13765;51.166;4.466;2023-05-07T01:14:09;15.90;99.90
25973;DHT22;13765;51.166;4.466;2023-05-07T01:16:35;15.90;99.90
25973;DHT22;13765;51.166;4.466;2023-05-07T01:19:03;15.90;99.90
25973;DHT22;13765;51.166;4.466;2023-05-07T01:21:33;15.90;99.90
25973;DHT22;13765;51.166;4.466;2023-05-07T01:23:59;15.90;99.90
25973;DHT22;13765;51.166;4.466;2023-05-07T01:26:24;15.90;99.90
25973;DHT22;13765;51.166;4.466;2023-05-07T01:28:50;15.90;99.90
25973;DHT22;13765;51.166;4.466;2023-05-07T01:31:17;15.90;99.90
25973;DHT22;13765;51.166;4.466;2023-05-07T01:33:44;15.90;99.90
25973;DHT22;13765;51.166;4.466;2023-05-07T01:36:12;15.80;99.90
25973;DHT22;13765;51.166;4.466;2023-05-07T01:38:39;15.70;99.90
25973;DHT22;13765;51.166;4.466;2023-05-07T01:41:06;15.70;99.90
25973;DHT22;13765;51.166;4.466;2023-05-07T01:43:32;15.70;99.90
25973;DHT22;13765;51.166;4.466;2023-05-07T01:45:59;15.70;99.90
25973;DHT22;13765;51.166;4.466;2023-05-07T01:48:28;15.70;99.90
25973;DHT22;13765;51.166;4.466;2023-05-07T01:50:53;15.60;99.90
25973;DHT22;13765;51.166;4.466;2023-05-07T01:53:20;15.60;99.90
25973;DHT22;13765;51.166;4.466;2023-05-07T01:55:48;15.60;99.90
25973;DHT22;13765;51.166;4.466;2023-05-07T01:58:15;15.60;99.90
25973;DHT22;13765;51.166;4.466;2023-05-07T02:00:44;15.50;99.90
25973;DHT22;13765;51.166;4.466;2023-05-07T02:03:09;15.50;99.90
25973;DHT22;13765;51.166;4.466;2023-05-07T02:05:35;15.40;99.90
25973;DHT22;13765;51.166;4.466;2023-05-07T02:08:03;15.40;99.90
25973;DHT22;13765;51.166;4.466;2023-05-07T02:10:31;15.40;99.90
25973;DHT22;13765;51.166;4.466;2023-05-07T02:12:59;15.30;99.90
25973;DHT22;13765;51.166;4.466;2023-05-07T02:15:27;15.30;99.90
25973;DHT22;13765;51.166;4.466;2023-05-07T02:18:04;15.20;99.90
25973;DHT22;13765;51.166;4.466;2023-05-07T02:20:30;15.20;99.90
25973;DHT22;13765;51.166;4.466;2023-05-07T02:22:56;15.20;99.90
25973;DHT22;13765;51.166;4.466;2023-05-07T02:25:24;15.20;99.90
25973;DHT22;13765;51.166;4.466;2023-05-07T02:27:49;15.10;99.90
25973;DHT22;13765;51.166;4.466;2023-05-07T02:30:15;15.10;99.90
25973;DHT22;13765;51.166;4.466;2023-05-07T02:32:41;15.10;99.90
25973;DHT22;13765;51.166;4.466;2023-05-07T02:35:07;15.20;99.90
25973;DHT22;13765;51.166;4.466;2023-05-07T02:37:33;15.20;99.90
25973;DHT22;13765;51.166;4.466;2023-05-07T02:39:58;15.20;99.90
25973;DHT22;13765;51.166;4.466;2023-05-07T02:42:24;15.20;99.90
25973;DHT22;13765;51.166;4.466;2023-05-07T02:44:50;15.30;99.90
25973;DHT22;13765;51.166;4.466;2023-05-07T02:47:15;15.20;99.90
25973;DHT22;13765;51.166;4.466;2023-05-07T02:49:41;15.20;99.90
25973;DHT22;13765;51.166;4.466;2023-05-07T02:52:09;15.20;99.90
25973;DHT22;13765;51.166;4.466;2023-05-07T02:54:35;15.20;99.90
25973;DHT22;13765;51.166;4.466;2023-05-07T02:57:00;15.30;99.90
25973;DHT22;13765;51.166;4.466;2023-05-07T02:59:27;15.30;99.90
25973;DHT22;13765;51.166;4.466;2023-05-07T03:01:53;15.30;99.90
25973;DHT22;13765;51.166;4.466;2023-05-07T03:04:18;15.40;99.90
25973;DHT22;13765;51.166;4.466;2023-05-07T03:06:46;15.40;99.90
25973;DHT22;13765;51.166;4.466;2023-05-07T03:09:12;15.40;99.90
25973;DHT22;13765;51.166;4.466;2023-05-07T03:11:37;15.40;99.90
25973;DHT22;13765;51.166;4.466;2023-05-07T03:14:08;15.40;99.90
25973;DHT22;13765;51.166;4.466;2023-05-07T03:16:33;15.50;99.90
25973;DHT22;13765;51.166;4.466;2023-05-07T03:18:59;15.50;99.90
25973;DHT22;13765;51.166;4.466;2023-05-07T03:21:25;15.60;99.90
25973;DHT22;13765;51.166;4.466;2023-05-07T03:23:51;15.60;99.90
25973;DHT22;13765;51.166;4.466;2023-05-07T03:26:17;15.60;99.90
25973;DHT22;13765;51.166;4.466;2023-05-07T03:28:45;15.60;99.90
25973;DHT22;13765;51.166;4.466;2023-05-07T03:31:13;15.60;99.90
25973;DHT22;13765;51.166;4.466;2023-05-07T03:33:52;15.60;99.90
25973;DHT22;13765;51.166;4.466;2023-05-07T03:36:18;15.60;99.90
25973;DHT22;13765;51.166;4.466;2023-05-07T03:38:46;15.70;99.90
25973;DHT22;13765;51.166;4.466;2023-05-07T03:41:12;15.60;99.90
25973;DHT22;13765;51.166;4.466;2023-05-07T03:43:38;15.60;99.90
25973;DHT22;13765;51.166;4.466;2023-05-07T03:46:04;15.60;99.90
25973;DHT22;13765;51.166;4.466;2023-05-07T03:48:29;15.60;99.90
25973;DHT22;13765;51.166;4.466;2023-05-07T03:50:57;15.60;99.90
25973;DHT22;13765;51.166;4.466;2023-05-07T03:53:25;15.60;99.90
25973;DHT22;13765;51.166;4.466;2023-05-07T03:55:51;15.60;99.90
25973;DHT22;13765;51.166;4.466;2023-05-07T03:58:16;15.60;99.90
25973;DHT22;13765;51.166;4.466;2023-05-07T04:00:42;15.60;99.90
25973;DHT22;13765;51.166;4.466;2023-05-07T04:03:08;15.60;99.90
25973;DHT22;13765;51.166;4.466;2023-05-07T04:05:34;15.60;99.90
25973;DHT22;13765;51.166;4.466;2023-05-07T04:08:00;15.60;99.90
25973;DHT22;13765;51.166;4.466;2023-05-07T04:10:26;15.60;99.90
25973;DHT22;13765;51.166;4.466;2023-05-07T04:12:53;15.60;99.90
25973;DHT22;13765;51.166;4.466;2023-05-07T04:15:19;15.60;99.90
25973;DHT22;13765;51.166;4.466;2023-05-07T04:17:45;15.50;99.90
25973;DHT22;13765;51.166;4.466;2023-05-07T04:20:15;15.60;99.90
25973;DHT22;13765;51.166;4.466;2023-05-07T04:22:43;15.60;99.90
25973;DHT22;13765;51.166;4.466;2023-05-07T04:25:09;15.60;99.90
25973;DHT22;13765;51.166;4.466;2023-05-07T04:27:35;15.60;99.90
25973;DHT22;13765;51.166;4.466;2023-05-07T04:30:04;15.60;99.90
25973;DHT22;13765;51.166;4.466;2023-05-07T04:32:30;15.50;99.90
25973;DHT22;13765;51.166;4.466;2023-05-07T04:34:56;15.50;99.90
25973;DHT22;13765;51.166;4.466;2023-05-07T04:37:22;15.50;99.90
25973;DHT22;13765;51.166;4.466;2023-05-07T04:39:48;15.50;99.90
25973;DHT22;13765;51.166;4.466;2023-05-07T04:42:17;15.60;99.90
25973;DHT22;13765;51.166;4.466;2023-05-07T04:44:46;15.60;99.90
25973;DHT22;13765;51.166;4.466;2023-05-07T04:47:12;15.60;99.90
25973;DHT22;13765;51.166;4.466;2023-05-07T04:49:38;15.60;99.90
25973;DHT22;13765;51.166;4.466;2023-05-07T04:52:04;15.70;99.90
25973;DHT22;13765;51.166;4.466;2023-05-07T04:54:30;15.70;99.90
25973;DHT22;13765;51.166;4.466;2023-05-07T04:56:56;15.80;99.90
25973;DHT22;13765;51.166;4.466;2023-05-07T04:59:21;15.90;99.90
25973;DHT22;13765;51.166;4.466;2023-05-07T05:01:47;15.90;99.90
25973;DHT22;13765;51.166;4.466;2023-05-07T05:04:13;16.00;99.90
25973;DHT22;13765;51.166;4.466;2023-05-07T05:06:39;16.00;99.90
25973;DHT22;13765;51.166;4.466;2023-05-07T05:09:04;16.10;99.90
25973;DHT22;13765;51.166;4.466;2023-05-07T05:11:31;16.10;99.90
25973;DHT22;13765;51.166;4.466;2023-05-07T05:13:57;16.10;99.90
25973;DHT22;13765;51.166;4.466;2023-05-07T05:16:22;16.10;99.90
25973;DHT22;13765;51.166;4.466;2023-05-07T05:18:50;16.10;99.90
25973;DHT22;13765;51.166;4.466;2023-05-07T05:21:17;16.20;99.90
25973;DHT22;13765;51.166;4.466;2023-05-07T05:23:45;16.30;99.90
25973;DHT22;13765;51.166;4.466;2023-05-07T05:26:11;16.30;99.90
25973;DHT22;13765;51.166;4.466;2023-05-07T05:28:36;16.20;99.90
25973;DHT22;13765;51.166;4.466;2023-05-07T05:31:04;16.30;99.90
25973;DHT22;13765;51.166;4.466;2023-05-07T05:33:30;16.30;99.90
25973;DHT22;13765;51.166;4.466;2023-05-07T05:35:56;16.40;99.90
25973;DHT22;13765;51.166;4.466;2023-05-07T05:38:22;16.50;99.90
25973;DHT22;13765;51.166;4.466;2023-05-07T05:40:47;16.60;99.90
25973;DHT22;13765;51.166;4.466;2023-05-07T05:43:14;16.60;99.90
25973;DHT22;13765;51.166;4.466;2023-05-07T05:45:42;16.60;99.90
25973;DHT22;13765;51.166;4.466;2023-05-07T05:48:08;16.70;99.90
25973;DHT22;13765;51.166;4.466;2023-05-07T05:50:34;16.70;99.90
25973;DHT22;13765;51.166;4.466;2023-05-07T05:53:02;16.80;99.90
25973;DHT22;13765;51.166;4.466;2023-05-07T05:55:28;16.80;99.90
25973;DHT22;13765;51.166;4.466;2023-05-07T05:57:53;16.70;99.90
25973;DHT22;13765;51.166;4.466;2023-05-07T06:00:19;16.80;99.90
25973;DHT22;13765;51.166;4.466;2023-05-07T06:02:50;16.80;99.90
25973;DHT22;13765;51.166;4.466;2023-05-07T06:05:18;16.70;99.90
25973;DHT22;13765;51.166;4.466;2023-05-07T06:07:46;16.80;99.90
25973;DHT22;13765;51.166;4.466;2023-05-07T06:10:11;16.90;99.90
25973;DHT22;13765;51.166;4.466;2023-05-07T06:12:37;16.80;99.90
25973;DHT22;13765;51.166;4.466;2023-05-07T06:15:04;16.80;99.90
25973;DHT22;13765;51.166;4.466;2023-05-07T06:17:32;16.90;99.90
25973;DHT22;13765;51.166;4.466;2023-05-07T06:19:58;17.00;99.90
25973;DHT22;13765;51.166;4.466;2023-05-07T06:22:23;17.10;99.90
25973;DHT22;13765;51.166;4.466;2023-05-07T06:24:49;17.10;99.90
25973;DHT22;13765;51.166;4.466;2023-05-07T06:27:14;17.20;99.90
25973;DHT22;13765;51.166;4.466;2023-05-07T06:29:40;17.20;99.90
25973;DHT22;13765;51.166;4.466;2023-05-07T06:32:09;17.20;99.90
25973;DHT22;13765;51.166;4.466;2023-05-07T06:34:35;17.30;99.90
25973;DHT22;13765;51.166;4.466;2023-05-07T06:37:01;17.30;99.90
25973;DHT22;13765;51.166;4.466;2023-05-07T06:39:27;17.40;99.90
25973;DHT22;13765;51.166;4.466;2023-05-07T06:41:53;17.40;99.90
25973;DHT22;13765;51.166;4.466;2023-05-07T06:44:19;17.50;99.90
25973;DHT22;13765;51.166;4.466;2023-05-07T06:46:44;17.60;99.90
25973;DHT22;13765;51.166;4.466;2023-05-07T06:49:12;17.70;99.90
25973;DHT22;13765;51.166;4.466;2023-05-07T06:51:38;17.80;99.90
25973;DHT22;13765;51.166;4.466;2023-05-07T06:54:03;17.90;99.90
25973;DHT22;13765;51.166;4.466;2023-05-07T06:56:30;18.00;99.90
25973;DHT22;13765;51.166;4.466;2023-05-07T06:58:56;18.00;99.90
25973;DHT22;13765;51.166;4.466;2023-05-07T07:01:26;18.00;99.90
25973;DHT22;13765;51.166;4.466;2023-05-07T07:03:52;18.00;99.90
25973;DHT22;13765;51.166;4.466;2023-05-07T07:06:20;18.00;99.90
25973;DHT22;13765;51.166;4.466;2023-05-07T07:08:46;17.90;99.90
25973;DHT22;13765;51.166;4.466;2023-05-07T07:11:11;17.90;99.90
25973;DHT22;13765;51.166;4.466;2023-05-07T07:13:37;17.80;99.90
25973;DHT22;13765;51.166;4.466;2023-05-07T07:16:05;17.90;99.90
25973;DHT22;13765;51.166;4.466;2023-05-07T07:18:31;18.10;99.90
25973;DHT22;13765;51.166;4.466;2023-05-07T07:20:57;18.10;99.90
25973;DHT22;13765;51.166;4.466;2023-05-07T07:23:23;18.30;99.90
25973;DHT22;13765;51.166;4.466;2023-05-07T07:25:49;18.40;99.90
25973;DHT22;13765;51.166;4.466;2023-05-07T07:28:14;18.40;99.90
25973;DHT22;13765;51.166;4.466;2023-05-07T07:30:40;18.40;99.90
25973;DHT22;13765;51.166;4.466;2023-05-07T07:33:06;18.40;99.90
25973;DHT22;13765;51.166;4.466;2023-05-07T07:35:34;18.60;99.90
25973;DHT22;13765;51.166;4.466;2023-05-07T07:38:00;18.70;99.90
25973;DHT22;13765;51.166;4.466;2023-05-07T07:40:27;18.70;99.90
25973;DHT22;13765;51.166;4.466;2023-05-07T07:42:53;18.80;99.90
25973;DHT22;13765;51.166;4.466;2023-05-07T07:45:19;18.90;99.90
25973;DHT22;13765;51.166;4.466;2023-05-07T07:47:44;19.10;99.90
25973;DHT22;13765;51.166;4.466;2023-05-07T07:50:10;19.20;99.90
25973;DHT22;13765;51.166;4.466;2023-05-07T07:52:36;19.10;99.90
25973;DHT22;13765;51.166;4.466;2023-05-07T07:55:02;19.20;99.90
25973;DHT22;13765;51.166;4.466;2023-05-07T07:57:28;19.30;99.90
25973;DHT22;13765;51.166;4.466;2023-05-07T07:59:54;19.30;99.90
25973;DHT22;13765;51.166;4.466;2023-05-07T08:02:20;19.50;99.90
25973;DHT22;13765;51.166;4.466;2023-05-07T08:04:46;19.60;99.90
25973;DHT22;13765;51.166;4.466;2023-05-07T08:07:13;19.50;99.90
25973;DHT22;13765;51.166;4.466;2023-05-07T08:09:39;19.40;99.90
25973;DHT22;13765;51.166;4.466;2023-05-07T08:12:06;19.60;99.90
25973;DHT22;13765;51.166;4.466;2023-05-07T08:14:32;19.60;99.90
25973;DHT22;13765;51.166;4.466;2023-05-07T08:17:00;19.60;99.90
25973;DHT22;13765;51.166;4.466;2023-05-07T08:19:26;19.50;99.90
25973;DHT22;13765;51.166;4.466;2023-05-07T08:21:51;19.50;99.90
25973;DHT22;13765;51.166;4.466;2023-05-07T08:24:17;19.60;99.90
25973;DHT22;13765;51.166;4.466;2023-05-07T08:26:44;19.60;99.90
25973;DHT22;13765;51.166;4.466;2023-05-07T08:29:10;19.60;99.90
25973;DHT22;13765;51.166;4.466;2023-05-07T08:31:36;19.70;99.90
25973;DHT22;13765;51.166;4.466;2023-05-07T08:34:04;19.90;99.90
25973;DHT22;13765;51.166;4.466;2023-05-07T08:36:30;19.90;99.90
25973;DHT22;13765;51.166;4.466;2023-05-07T08:38:56;19.90;99.90
25973;DHT22;13765;51.166;4.466;2023-05-07T09:18:26;18.90;99.90
25973;DHT22;13765;51.166;4.466;2023-05-07T09:20:52;18.90;99.90
25973;DHT22;13765;51.166;4.466;2023-05-07T09:23:18;19.00;99.90
25973;DHT22;13765;51.166;4.466;2023-05-07T09:25:43;19.10;99.90
25973;DHT22;13765;51.166;4.466;2023-05-07T09:43:11;18.90;99.90
25973;DHT22;13765;51.166;4.466;2023-05-07T09:45:38;18.80;99.90
25973;DHT22;13765;51.166;4.466;2023-05-07T09:48:06;18.70;99.90
25973;DHT22;13765;51.166;4.466;2023-05-07T09:50:36;18.60;99.90
25973;DHT22;13765;51.166;4.466;2023-05-07T09:53:04;18.70;99.90
25973;DHT22;13765;51.166;4.466;2023-05-07T09:55:30;18.80;99.90
25973;DHT22;13765;51.166;4.466;2023-05-07T09:57:57;18.80;99.90
25973;DHT22;13765;51.166;4.466;2023-05-07T10:00:25;18.80;99.90
25973;DHT22;13765;51.166;4.466;2023-05-07T10:02:56;18.80;99.90
25973;DHT22;13765;51.166;4.466;2023-05-07T10:05:22;18.90;99.90
25973;DHT22;13765;51.166;4.466;2023-05-07T10:07:49;18.90;99.90
25973;DHT22;13765;51.166;4.466;2023-05-07T10:10:16;18.90;99.90
25973;DHT22;13765;51.166;4.466;2023-05-07T10:12:42;18.80;99.90
25973;DHT22;13765;51.166;4.466;2023-05-07T10:15:09;18.80;99.90
25973;DHT22;13765;51.166;4.466;2023-05-07T10:17:39;18.80;99.90
25973;DHT22;13765;51.166;4.466;2023-05-07T10:20:06;18.90;99.90
25973;DHT22;13765;51.166;4.466;2023-05-07T10:22:41;19.00;99.90
25973;DHT22;13765;51.166;4.466;2023-05-07T10:25:30;18.90;99.90
25973;DHT22;13765;51.166;4.466;2023-05-07T10:28:01;18.90;99.90
25973;DHT22;13765;51.166;4.466;2023-05-07T10:33:02;18.90;99.90
25973;DHT22;13765;51.166;4.466;2023-05-07T10:35:37;19.00;99.90
25973;DHT22;13765;51.166;4.466;2023-05-07T10:38:04;18.90;99.90
25973;DHT22;13765;51.166;4.466;2023-05-07T10:40:31;19.00;99.90
25973;DHT22;13765;51.166;4.466;2023-05-07T10:43:04;19.00;99.90
25973;DHT22;13765;51.166;4.466;2023-05-07T10:45:33;18.90;99.90
25973;DHT22;13765;51.166;4.466;2023-05-07T10:48:09;18.90;99.90
25973;DHT22;13765;51.166;4.466;2023-05-07T10:50:39;18.80;99.90
25973;DHT22;13765;51.166;4.466;2023-05-07T10:55:47;18.90;99.90
25973;DHT22;13765;51.166;4.466;2023-05-07T10:58:29;18.90;99.90
25973;DHT22;13765;51.166;4.466;2023-05-07T11:01:01;18.90;99.90
25973;DHT22;13765;51.166;4.466;2023-05-07T11:03:28;18.90;99.90
25973;DHT22;13765;51.166;4.466;2023-05-07T11:06:11;18.90;99.90
25973;DHT22;13765;51.166;4.466;2023-05-07T11:08:56;18.90;99.90
25973;DHT22;13765;51.166;4.466;2023-05-07T11:11:47;19.00;99.90
25973;DHT22;13765;51.166;4.466;2023-05-07T11:17:10;19.00;99.90
25973;DHT22;13765;51.166;4.466;2023-05-07T11:19:53;19.00;99.90
25973;DHT22;13765;51.166;4.466;2023-05-07T11:25:00;19.10;99.90
25973;DHT22;13765;51.166;4.466;2023-05-07T11:27:27;19.20;99.90
25973;DHT22;13765;51.166;4.466;2023-05-07T11:29:58;19.20;99.90
25973;DHT22;13765;51.166;4.466;2023-05-07T11:32:28;19.30;99.90
25973;DHT22;13765;51.166;4.466;2023-05-07T11:34:56;19.30;99.90
25973;DHT22;13765;51.166;4.466;2023-05-07T11:37:23;19.30;99.90
25973;DHT22;13765;51.166;4.466;2023-05-07T11:39:49;19.30;99.90
25973;DHT22;13765;51.166;4.466;2023-05-07T11:42:30;19.20;99.90
25973;DHT22;13765;51.166;4.466;2023-05-07T11:44:56;19.10;99.90
25973;DHT22;13765;51.166;4.466;2023-05-07T11:47:22;19.10;99.90
25973;DHT22;13765;51.166;4.466;2023-05-07T11:49:51;19.20;99.90
25973;DHT22;13765;51.166;4.466;2023-05-07T11:52:20;19.30;99.90
25973;DHT22;13765;51.166;4.466;2023-05-07T11:54:53;19.40;99.90
25973;DHT22;13765;51.166;4.466;2023-05-07T11:57:20;19.50;99.90
25973;DHT22;13765;51.166;4.466;2023-05-07T11:59:49;19.50;99.90
25973;DHT22;13765;51.166;4.466;2023-05-07T12:02:20;19.40;99.90
25973;DHT22;13765;51.166;4.466;2023-05-07T12:04:46;19.50;99.90
25973;DHT22;13765;51.166;4.466;2023-05-07T12:07:13;19.50;99.90
25973;DHT22;13765;51.166;4.466;2023-05-07T12:09:40;19.60;99.90
25973;DHT22;13765;51.166;4.466;2023-05-07T12:12:05;19.60;99.90
25973;DHT22;13765;51.166;4.466;2023-05-07T12:14:31;19.70;99.90
25973;DHT22;13765;51.166;4.466;2023-05-07T12:17:01;19.80;99.90
25973;DHT22;13765;51.166;4.466;2023-05-07T12:19:34;19.70;99.90
25973;DHT22;13765;51.166;4.466;2023-05-07T12:22:02;19.70;99.90
25973;DHT22;13765;51.166;4.466;2023-05-07T12:24:28;19.90;99.90
25973;DHT22;13765;51.166;4.466;2023-05-07T12:26:54;19.80;99.90
25973;DHT22;13765;51.166;4.466;2023-05-07T12:29:23;19.90;99.90
25973;DHT22;13765;51.166;4.466;2023-05-07T12:31:50;19.90;99.90
25973;DHT22;13765;51.166;4.466;2023-05-07T12:34:16;19.80;99.90
25973;DHT22;13765;51.166;4.466;2023-05-07T12:36:44;19.80;99.90
25973;DHT22;13765;51.166;4.466;2023-05-07T12:39:09;19.90;99.90
25973;DHT22;13765;51.166;4.466;2023-05-07T12:41:55;20.00;99.90
25973;DHT22;13765;51.166;4.466;2023-05-07T12:44:25;19.90;99.90
25973;DHT22;13765;51.166;4.466;2023-05-07T12:47:01;19.90;99.90
25973;DHT22;13765;51.166;4.466;2023-05-07T12:49:27;20.10;99.90
25973;DHT22;13765;51.166;4.466;2023-05-07T12:51:53;20.20;99.90
25973;DHT22;13765;51.166;4.466;2023-05-07T12:54:32;20.20;99.90
25973;DHT22;13765;51.166;4.466;2023-05-07T12:57:02;20.40;99.90
25973;DHT22;13765;51.166;4.466;2023-05-07T12:59:38;20.40;99.90
25973;DHT22;13765;51.166;4.466;2023-05-07T13:02:05;20.40;99.90
25973;DHT22;13765;51.166;4.466;2023-05-07T13:04:31;20.60;99.90
25973;DHT22;13765;51.166;4.466;2023-05-07T13:06:57;20.60;99.90
25973;DHT22;13765;51.166;4.466;2023-05-07T13:09:23;20.70;99.90
25973;DHT22;13765;51.166;4.466;2023-05-07T13:11:48;20.60;99.90
25973;DHT22;13765;51.166;4.466;2023-05-07T13:14:14;20.70;99.90
25973;DHT22;13765;51.166;4.466;2023-05-07T13:16:40;20.90;99.90
25973;DHT22;13765;51.166;4.466;2023-05-07T13:19:08;21.00;99.90
25973;DHT22;13765;51.166;4.466;2023-05-07T13:21:34;21.00;99.90
25973;DHT22;13765;51.166;4.466;2023-05-07T13:24:02;21.30;99.90
25973;DHT22;13765;51.166;4.466;2023-05-07T13:26:27;21.30;99.90
25973;DHT22;13765;51.166;4.466;2023-05-07T13:28:54;21.40;99.90
25973;DHT22;13765;51.166;4.466;2023-05-07T13:31:19;21.40;99.90
25973;DHT22;13765;51.166;4.466;2023-05-07T13:33:48;21.40;99.90
25973;DHT22;13765;51.166;4.466;2023-05-07T13:36:14;21.20;99.90
25973;DHT22;13765;51.166;4.466;2023-05-07T13:38:42;21.30;99.90
25973;DHT22;13765;51.166;4.466;2023-05-07T13:41:11;21.20;99.90
25973;DHT22;13765;51.166;4.466;2023-05-07T13:43:38;21.30;99.90
25973;DHT22;13765;51.166;4.466;2023-05-07T13:46:03;21.30;99.90
25973;DHT22;13765;51.166;4.466;2023-05-07T13:48:29;21.60;99.90
25973;DHT22;13765;51.166;4.466;2023-05-07T13:50:57;21.70;99.90
25973;DHT22;13765;51.166;4.466;2023-05-07T13:53:23;21.90;99.90
25973;DHT22;13765;51.166;4.466;2023-05-07T13:55:49;21.70;99.90
25973;DHT22;13765;51.166;4.466;2023-05-07T13:58:14;21.70;99.90
25973;DHT22;13765;51.166;4.466;2023-05-07T14:00:40;21.60;99.90
25973;DHT22;13765;51.166;4.466;2023-05-07T14:03:06;21.60;99.90
25973;DHT22;13765;51.166;4.466;2023-05-07T14:05:31;21.40;99.90
25973;DHT22;13765;51.166;4.466;2023-05-07T14:08:00;21.40;99.90
25973;DHT22;13765;51.166;4.466;2023-05-07T14:10:26;21.60;99.90
25973;DHT22;13765;51.166;4.466;2023-05-07T14:12:51;21.80;99.90
25973;DHT22;13765;51.166;4.466;2023-05-07T14:15:18;21.70;99.90
25973;DHT22;13765;51.166;4.466;2023-05-07T14:17:44;21.90;99.90
25973;DHT22;13765;51.166;4.466;2023-05-07T14:20:10;21.90;99.90
25973;DHT22;13765;51.166;4.466;2023-05-07T14:22:36;21.80;99.90
25973;DHT22;13765;51.166;4.466;2023-05-07T14:25:02;21.90;99.90
25973;DHT22;13765;51.166;4.466;2023-05-07T14:27:28;21.90;99.90
25973;DHT22;13765;51.166;4.466;2023-05-07T14:29:54;21.80;99.90
25973;DHT22;13765;51.166;4.466;2023-05-07T14:32:20;21.80;99.90
25973;DHT22;13765;51.166;4.466;2023-05-07T14:34:46;21.90;99.90
25973;DHT22;13765;51.166;4.466;2023-05-07T14:37:12;22.00;99.90
25973;DHT22;13765;51.166;4.466;2023-05-07T14:39:37;22.00;99.90
25973;DHT22;13765;51.166;4.466;2023-05-07T14:42:03;22.10;99.90
25973;DHT22;13765;51.166;4.466;2023-05-07T14:44:29;22.00;99.90
25973;DHT22;13765;51.166;4.466;2023-05-07T14:46:55;21.90;99.90
25973;DHT22;13765;51.166;4.466;2023-05-07T14:49:20;22.00;99.90
25973;DHT22;13765;51.166;4.466;2023-05-07T14:51:46;22.00;99.90
25973;DHT22;13765;51.166;4.466;2023-05-07T14:54:13;22.00;99.90
25973;DHT22;13765;51.166;4.466;2023-05-07T14:56:41;21.70;99.90
25973;DHT22;13765;51.166;4.466;2023-05-07T14:59:10;21.60;99.90
25973;DHT22;13765;51.166;4.466;2023-05-07T15:01:36;21.40;99.90
25973;DHT22;13765;51.166;4.466;2023-05-07T15:04:04;21.60;99.90
25973;DHT22;13765;51.166;4.466;2023-05-07T15:06:31;21.70;99.90
25973;DHT22;13765;51.166;4.466;2023-05-07T15:08:57;21.80;99.90
25973;DHT22;13765;51.166;4.466;2023-05-07T15:11:22;21.40;99.90
25973;DHT22;13765;51.166;4.466;2023-05-07T15:13:50;21.30;99.90
25973;DHT22;13765;51.166;4.466;2023-05-07T15:16:16;21.20;99.90
25973;DHT22;13765;51.166;4.466;2023-05-07T15:18:42;21.20;99.90
25973;DHT22;13765;51.166;4.466;2023-05-07T15:21:11;21.30;99.90
25973;DHT22;13765;51.166;4.466;2023-05-07T15:23:39;21.30;99.90
25973;DHT22;13765;51.166;4.466;2023-05-07T15:26:06;21.10;99.90
25973;DHT22;13765;51.166;4.466;2023-05-07T15:28:33;21.40;99.90
25973;DHT22;13765;51.166;4.466;2023-05-07T15:30:59;21.50;99.90
25973;DHT22;13765;51.166;4.466;2023-05-07T15:33:25;21.70;99.90
25973;DHT22;13765;51.166;4.466;2023-05-07T15:35:50;21.80;99.90
25973;DHT22;13765;51.166;4.466;2023-05-07T15:38:16;21.80;99.90
25973;DHT22;13765;51.166;4.466;2023-05-07T15:40:44;21.70;99.90
25973;DHT22;13765;51.166;4.466;2023-05-07T15:43:11;21.80;99.90
25973;DHT22;13765;51.166;4.466;2023-05-07T15:45:41;21.70;99.90
25973;DHT22;13765;51.166;4.466;2023-05-07T15:48:07;21.60;99.90
25973;DHT22;13765;51.166;4.466;2023-05-07T15:50:33;21.50;99.90
25973;DHT22;13765;51.166;4.466;2023-05-07T15:52:59;21.70;99.90
25973;DHT22;13765;51.166;4.466;2023-05-07T15:55:24;21.70;99.90
25973;DHT22;13765;51.166;4.466;2023-05-07T15:57:51;21.70;99.90
25973;DHT22;13765;51.166;4.466;2023-05-07T16:00:16;21.60;99.90
25973;DHT22;13765;51.166;4.466;2023-05-07T16:02:43;21.60;99.90
25973;DHT22;13765;51.166;4.466;2023-05-07T16:05:11;21.70;99.90
25973;DHT22;13765;51.166;4.466;2023-05-07T16:07:39;21.70;99.90
25973;DHT22;13765;51.166;4.466;2023-05-07T16:10:08;21.70;99.90
25973;DHT22;13765;51.166;4.466;2023-05-07T16:12:36;21.70;99.90
25973;DHT22;13765;51.166;4.466;2023-05-07T16:15:02;21.70;99.90
25973;DHT22;13765;51.166;4.466;2023-05-07T16:17:29;21.80;99.90
25973;DHT22;13765;51.166;4.466;2023-05-07T16:19:54;21.80;99.90
25973;DHT22;13765;51.166;4.466;2023-05-07T16:22:21;21.70;99.90
25973;DHT22;13765;51.166;4.466;2023-05-07T16:24:49;21.70;99.90
25973;DHT22;13765;51.166;4.466;2023-05-07T16:27:15;21.50;99.90
25973;DHT22;13765;51.166;4.466;2023-05-07T16:29:43;21.40;99.90
25973;DHT22;13765;51.166;4.466;2023-05-07T16:32:09;21.30;99.90